sensor_id;sensor_type;location;lat;lon;timestamp;P1;durP1;ratioP1;P2;durP2;ratioP2
41446;SDS011;27185;52.040;4.490;2024-01-25T00:00:21;28.25;;;4.88;;
41446;SDS011;27185;52.040;4.490;2024-01-25T00:03:07;27.52;;;4.50;;
41446;SDS011;27185;52.040;4.490;2024-01-25T00:05:52;29.13;;;4.57;;
41446;SDS011;27185;52.040;4.490;2024-01-25T00:08:38;31.17;;;5.68;;
41446;SDS011;27185;52.040;4.490;2024-01-25T00:11:24;29.95;;;5.43;;
41446;SDS011;27185;52.040;4.490;2024-01-25T00:14:09;29.25;;;4.50;;
41446;SDS011;27185;52.040;4.490;2024-01-25T00:16:55;37.72;;;6.60;;
41446;SDS011;27185;52.040;4.490;2024-01-25T00:19:40;34.05;;;6.05;;
41446;SDS011;27185;52.040;4.490;2024-01-25T00:22:26;29.33;;;4.32;;
41446;SDS011;27185;52.040;4.490;2024-01-25T00:25:11;30.85;;;6.25;;
41446;SDS011;27185;52.040;4.490;2024-01-25T00:27:57;34.47;;;5.78;;
41446;SDS011;27185;52.040;4.490;2024-01-25T00:30:42;25.55;;;4.75;;
41446;SDS011;27185;52.040;4.490;2024-01-25T00:33:28;26.30;;;4.30;;
41446;SDS011;27185;52.040;4.490;2024-01-25T00:36:14;30.48;;;4.18;;
41446;SDS011;27185;52.040;4.490;2024-01-25T00:39:00;22.80;;;4.30;;
41446;SDS011;27185;52.040;4.490;2024-01-25T00:41:45;28.92;;;4.65;;
41446;SDS011;27185;52.040;4.490;2024-01-25T00:44:35;24.00;;;3.78;;
41446;SDS011;27185;52.040;4.490;2024-01-25T00:47:21;25.40;;;4.43;;
41446;SDS011;27185;52.040;4.490;2024-01-25T00:50:08;19.33;;;2.90;;
41446;SDS011;27185;52.040;4.490;2024-01-25T00:52:54;34.78;;;5.40;;
41446;SDS011;27185;52.040;4.490;2024-01-25T00:55:39;32.08;;;4.72;;
41446;SDS011;27185;52.040;4.490;2024-01-25T00:58:26;41.38;;;6.30;;
41446;SDS011;27185;52.040;4.490;2024-01-25T01:01:12;22.23;;;3.85;;
41446;SDS011;27185;52.040;4.490;2024-01-25T01:03:58;31.58;;;4.82;;
41446;SDS011;27185;52.040;4.490;2024-01-25T01:06:44;24.10;;;3.70;;
41446;SDS011;27185;52.040;4.490;2024-01-25T01:09:29;33.72;;;5.00;;
41446;SDS011;27185;52.040;4.490;2024-01-25T01:12:15;26.35;;;4.03;;
41446;SDS011;27185;52.040;4.490;2024-01-25T01:15:01;24.40;;;4.55;;
41446;SDS011;27185;52.040;4.490;2024-01-25T01:17:47;27.73;;;4.15;;
41446;SDS011;27185;52.040;4.490;2024-01-25T01:20:33;33.35;;;5.50;;
41446;SDS011;27185;52.040;4.490;2024-01-25T01:23:18;25.85;;;4.28;;
41446;SDS011;27185;52.040;4.490;2024-01-25T01:26:04;25.13;;;3.60;;
41446;SDS011;27185;52.040;4.490;2024-01-25T01:28:50;27.70;;;3.83;;
41446;SDS011;27185;52.040;4.490;2024-01-25T01:31:36;34.45;;;4.85;;
41446;SDS011;27185;52.040;4.490;2024-01-25T01:34:22;20.70;;;3.90;;
41446;SDS011;27185;52.040;4.490;2024-01-25T01:37:09;28.92;;;4.78;;
41446;SDS011;27185;52.040;4.490;2024-01-25T01:39:54;23.15;;;3.90;;
41446;SDS011;27185;52.040;4.490;2024-01-25T01:42:40;24.38;;;5.82;;
41446;SDS011;27185;52.040;4.490;2024-01-25T01:45:26;25.55;;;4.13;;
41446;SDS011;27185;52.040;4.490;2024-01-25T01:48:12;24.15;;;3.83;;
41446;SDS011;27185;52.040;4.490;2024-01-25T01:50:58;31.20;;;5.32;;
41446;SDS011;27185;52.040;4.490;2024-01-25T01:53:44;24.02;;;4.68;;
41446;SDS011;27185;52.040;4.490;2024-01-25T01:56:31;26.83;;;5.85;;
41446;SDS011;27185;52.040;4.490;2024-01-25T01:59:17;29.30;;;4.43;;
41446;SDS011;27185;52.040;4.490;2024-01-25T02:02:02;32.17;;;5.32;;
41446;SDS011;27185;52.040;4.490;2024-01-25T02:04:48;33.50;;;5.15;;
41446;SDS011;27185;52.040;4.490;2024-01-25T02:07:34;27.48;;;4.55;;
41446;SDS011;27185;52.040;4.490;2024-01-25T02:10:27;30.90;;;4.60;;
41446;SDS011;27185;52.040;4.490;2024-01-25T02:13:12;35.40;;;4.80;;
41446;SDS011;27185;52.040;4.490;2024-01-25T02:15:58;31.27;;;5.60;;
41446;SDS011;27185;52.040;4.490;2024-01-25T02:18:43;26.40;;;4.93;;
41446;SDS011;27185;52.040;4.490;2024-01-25T02:21:29;24.30;;;5.28;;
41446;SDS011;27185;52.040;4.490;2024-01-25T02:24:14;26.10;;;4.95;;
41446;SDS011;27185;52.040;4.490;2024-01-25T02:27:00;29.70;;;4.32;;
41446;SDS011;27185;52.040;4.490;2024-01-25T02:29:46;25.92;;;4.88;;
41446;SDS011;27185;52.040;4.490;2024-01-25T02:32:32;31.45;;;4.88;;
41446;SDS011;27185;52.040;4.490;2024-01-25T02:35:18;23.25;;;3.90;;
41446;SDS011;27185;52.040;4.490;2024-01-25T02:38:03;22.50;;;3.47;;
41446;SDS011;27185;52.040;4.490;2024-01-25T02:40:49;27.35;;;3.63;;
41446;SDS011;27185;52.040;4.490;2024-01-25T02:43:35;25.10;;;4.43;;
41446;SDS011;27185;52.040;4.490;2024-01-25T02:46:20;32.97;;;5.90;;
41446;SDS011;27185;52.040;4.490;2024-01-25T02:49:06;26.25;;;4.07;;
41446;SDS011;27185;52.040;4.490;2024-01-25T02:51:51;25.63;;;4.43;;
41446;SDS011;27185;52.040;4.490;2024-01-25T02:54:37;25.13;;;4.35;;
41446;SDS011;27185;52.040;4.490;2024-01-25T02:57:22;26.00;;;4.50;;
41446;SDS011;27185;52.040;4.490;2024-01-25T03:00:08;23.92;;;4.50;;
41446;SDS011;27185;52.040;4.490;2024-01-25T03:02:54;29.02;;;4.07;;
41446;SDS011;27185;52.040;4.490;2024-01-25T03:05:40;29.27;;;4.40;;
41446;SDS011;27185;52.040;4.490;2024-01-25T03:08:25;31.38;;;3.95;;
41446;SDS011;27185;52.040;4.490;2024-01-25T03:11:11;19.00;;;3.80;;
41446;SDS011;27185;52.040;4.490;2024-01-25T03:13:57;21.83;;;4.28;;
41446;SDS011;27185;52.040;4.490;2024-01-25T03:16:42;18.88;;;3.53;;
41446;SDS011;27185;52.040;4.490;2024-01-25T03:19:28;23.73;;;3.85;;
41446;SDS011;27185;52.040;4.490;2024-01-25T03:22:14;25.67;;;3.83;;
41446;SDS011;27185;52.040;4.490;2024-01-25T03:25:00;27.30;;;3.67;;
41446;SDS011;27185;52.040;4.490;2024-01-25T03:27:45;23.90;;;4.65;;
41446;SDS011;27185;52.040;4.490;2024-01-25T03:30:31;32.70;;;4.95;;
41446;SDS011;27185;52.040;4.490;2024-01-25T03:33:16;24.90;;;4.25;;
41446;SDS011;27185;52.040;4.490;2024-01-25T03:36:02;24.48;;;3.45;;
41446;SDS011;27185;52.040;4.490;2024-01-25T03:38:48;21.17;;;3.58;;
41446;SDS011;27185;52.040;4.490;2024-01-25T03:41:34;23.10;;;4.05;;
41446;SDS011;27185;52.040;4.490;2024-01-25T03:44:19;27.48;;;4.15;;
41446;SDS011;27185;52.040;4.490;2024-01-25T03:47:05;20.90;;;3.50;;
41446;SDS011;27185;52.040;4.490;2024-01-25T03:49:51;26.35;;;3.97;;
41446;SDS011;27185;52.040;4.490;2024-01-25T03:52:36;25.88;;;3.83;;
41446;SDS011;27185;52.040;4.490;2024-01-25T03:55:22;17.30;;;3.22;;
41446;SDS011;27185;52.040;4.490;2024-01-25T03:58:07;29.40;;;4.57;;
41446;SDS011;27185;52.040;4.490;2024-01-25T04:00:53;27.17;;;4.65;;
41446;SDS011;27185;52.040;4.490;2024-01-25T04:03:39;24.42;;;4.15;;
41446;SDS011;27185;52.040;4.490;2024-01-25T04:06:24;30.25;;;4.55;;
41446;SDS011;27185;52.040;4.490;2024-01-25T04:09:10;26.80;;;3.78;;
41446;SDS011;27185;52.040;4.490;2024-01-25T04:11:55;18.35;;;3.38;;
41446;SDS011;27185;52.040;4.490;2024-01-25T04:14:41;29.02;;;4.53;;
41446;SDS011;27185;52.040;4.490;2024-01-25T04:17:27;26.55;;;3.70;;
41446;SDS011;27185;52.040;4.490;2024-01-25T04:20:12;22.50;;;2.95;;
41446;SDS011;27185;52.040;4.490;2024-01-25T04:22:59;19.40;;;4.17;;
41446;SDS011;27185;52.040;4.490;2024-01-25T04:25:45;32.10;;;5.90;;
41446;SDS011;27185;52.040;4.490;2024-01-25T04:28:31;20.98;;;3.85;;
41446;SDS011;27185;52.040;4.490;2024-01-25T04:31:16;23.95;;;4.45;;
41446;SDS011;27185;52.040;4.490;2024-01-25T04:34:02;25.48;;;4.85;;
41446;SDS011;27185;52.040;4.490;2024-01-25T04:36:47;21.25;;;4.05;;
41446;SDS011;27185;52.040;4.490;2024-01-25T04:39:33;22.38;;;3.65;;
41446;SDS011;27185;52.040;4.490;2024-01-25T04:42:18;27.45;;;4.05;;
41446;SDS011;27185;52.040;4.490;2024-01-25T04:45:04;32.30;;;3.55;;
41446;SDS011;27185;52.040;4.490;2024-01-25T04:47:51;20.65;;;3.53;;
41446;SDS011;27185;52.040;4.490;2024-01-25T04:50:37;29.63;;;4.30;;
41446;SDS011;27185;52.040;4.490;2024-01-25T04:53:24;27.45;;;4.30;;
41446;SDS011;27185;52.040;4.490;2024-01-25T04:56:10;26.92;;;4.25;;
41446;SDS011;27185;52.040;4.490;2024-01-25T04:58:55;22.60;;;3.75;;
41446;SDS011;27185;52.040;4.490;2024-01-25T05:01:41;26.70;;;4.75;;
41446;SDS011;27185;52.040;4.490;2024-01-25T05:04:27;23.40;;;4.07;;
41446;SDS011;27185;52.040;4.490;2024-01-25T05:07:14;26.00;;;4.13;;
41446;SDS011;27185;52.040;4.490;2024-01-25T05:09:59;26.40;;;4.38;;
41446;SDS011;27185;52.040;4.490;2024-01-25T05:12:45;29.05;;;4.50;;
41446;SDS011;27185;52.040;4.490;2024-01-25T05:15:30;19.58;;;3.20;;
41446;SDS011;27185;52.040;4.490;2024-01-25T05:18:16;24.25;;;4.05;;
41446;SDS011;27185;52.040;4.490;2024-01-25T05:21:01;23.45;;;3.90;;
41446;SDS011;27185;52.040;4.490;2024-01-25T05:23:47;21.30;;;3.35;;
41446;SDS011;27185;52.040;4.490;2024-01-25T05:26:32;26.27;;;3.88;;
41446;SDS011;27185;52.040;4.490;2024-01-25T05:29:18;23.73;;;3.92;;
41446;SDS011;27185;52.040;4.490;2024-01-25T05:32:04;22.98;;;5.13;;
41446;SDS011;27185;52.040;4.490;2024-01-25T05:34:49;24.35;;;4.28;;
41446;SDS011;27185;52.040;4.490;2024-01-25T05:37:35;26.15;;;4.88;;
41446;SDS011;27185;52.040;4.490;2024-01-25T05:40:20;25.20;;;4.57;;
41446;SDS011;27185;52.040;4.490;2024-01-25T05:43:06;22.05;;;4.93;;
41446;SDS011;27185;52.040;4.490;2024-01-25T05:45:51;29.50;;;5.10;;
41446;SDS011;27185;52.040;4.490;2024-01-25T05:48:37;28.20;;;4.82;;
41446;SDS011;27185;52.040;4.490;2024-01-25T05:51:23;26.95;;;5.65;;
41446;SDS011;27185;52.040;4.490;2024-01-25T05:54:08;30.05;;;5.78;;
41446;SDS011;27185;52.040;4.490;2024-01-25T05:56:54;25.75;;;5.72;;
41446;SDS011;27185;52.040;4.490;2024-01-25T05:59:39;27.77;;;5.43;;
41446;SDS011;27185;52.040;4.490;2024-01-25T06:02:25;35.47;;;5.78;;
41446;SDS011;27185;52.040;4.490;2024-01-25T06:05:11;24.73;;;6.05;;
41446;SDS011;27185;52.040;4.490;2024-01-25T06:07:57;24.27;;;5.25;;
41446;SDS011;27185;52.040;4.490;2024-01-25T06:10:42;31.75;;;5.63;;
41446;SDS011;27185;52.040;4.490;2024-01-25T06:13:28;32.15;;;6.13;;
41446;SDS011;27185;52.040;4.490;2024-01-25T06:16:13;38.55;;;5.68;;
41446;SDS011;27185;52.040;4.490;2024-01-25T06:18:59;30.10;;;5.57;;
41446;SDS011;27185;52.040;4.490;2024-01-25T06:21:46;26.65;;;5.07;;
41446;SDS011;27185;52.040;4.490;2024-01-25T06:24:31;27.65;;;4.55;;
41446;SDS011;27185;52.040;4.490;2024-01-25T06:27:17;19.77;;;4.68;;
41446;SDS011;27185;52.040;4.490;2024-01-25T06:30:03;29.90;;;5.80;;
41446;SDS011;27185;52.040;4.490;2024-01-25T06:32:49;40.83;;;5.85;;
41446;SDS011;27185;52.040;4.490;2024-01-25T06:35:34;26.17;;;5.00;;
41446;SDS011;27185;52.040;4.490;2024-01-25T06:38:20;30.20;;;5.35;;
41446;SDS011;27185;52.040;4.490;2024-01-25T06:41:05;27.27;;;5.55;;
41446;SDS011;27185;52.040;4.490;2024-01-25T06:43:52;21.95;;;4.07;;
41446;SDS011;27185;52.040;4.490;2024-01-25T06:46:37;23.42;;;3.92;;
41446;SDS011;27185;52.040;4.490;2024-01-25T06:49:23;25.63;;;4.68;;
41446;SDS011;27185;52.040;4.490;2024-01-25T06:52:08;29.33;;;5.22;;
41446;SDS011;27185;52.040;4.490;2024-01-25T06:54:54;26.27;;;5.47;;
41446;SDS011;27185;52.040;4.490;2024-01-25T06:57:39;36.88;;;6.07;;
41446;SDS011;27185;52.040;4.490;2024-01-25T07:00:25;29.92;;;5.93;;
41446;SDS011;27185;52.040;4.490;2024-01-25T07:03:10;24.17;;;5.15;;
41446;SDS011;27185;52.040;4.490;2024-01-25T07:05:56;25.13;;;5.05;;
41446;SDS011;27185;52.040;4.490;2024-01-25T07:08:41;21.23;;;4.63;;
41446;SDS011;27185;52.040;4.490;2024-01-25T07:11:27;24.48;;;5.25;;
41446;SDS011;27185;52.040;4.490;2024-01-25T07:14:12;29.50;;;5.50;;
41446;SDS011;27185;52.040;4.490;2024-01-25T07:16:58;30.88;;;5.25;;
41446;SDS011;27185;52.040;4.490;2024-01-25T07:19:44;28.27;;;5.72;;
41446;SDS011;27185;52.040;4.490;2024-01-25T07:22:30;32.65;;;6.70;;
41446;SDS011;27185;52.040;4.490;2024-01-25T07:25:15;29.27;;;5.88;;
41446;SDS011;27185;52.040;4.490;2024-01-25T07:28:01;30.95;;;5.70;;
41446;SDS011;27185;52.040;4.490;2024-01-25T07:30:47;36.50;;;5.55;;
41446;SDS011;27185;52.040;4.490;2024-01-25T07:33:33;28.23;;;5.97;;
41446;SDS011;27185;52.040;4.490;2024-01-25T07:36:18;28.55;;;6.03;;
41446;SDS011;27185;52.040;4.490;2024-01-25T07:39:04;32.05;;;6.40;;
41446;SDS011;27185;52.040;4.490;2024-01-25T07:41:50;31.40;;;5.47;;
41446;SDS011;27185;52.040;4.490;2024-01-25T07:44:36;34.92;;;5.10;;
41446;SDS011;27185;52.040;4.490;2024-01-25T07:47:22;27.70;;;6.10;;
41446;SDS011;27185;52.040;4.490;2024-01-25T07:50:07;29.20;;;5.80;;
41446;SDS011;27185;52.040;4.490;2024-01-25T07:52:54;29.73;;;6.05;;
41446;SDS011;27185;52.040;4.490;2024-01-25T07:55:39;31.90;;;6.35;;
41446;SDS011;27185;52.040;4.490;2024-01-25T07:58:25;33.72;;;7.25;;
41446;SDS011;27185;52.040;4.490;2024-01-25T08:01:10;36.55;;;7.82;;
41446;SDS011;27185;52.040;4.490;2024-01-25T08:03:57;26.90;;;6.43;;
41446;SDS011;27185;52.040;4.490;2024-01-25T08:06:44;38.90;;;7.90;;
41446;SDS011;27185;52.040;4.490;2024-01-25T08:09:30;26.40;;;7.15;;
41446;SDS011;27185;52.040;4.490;2024-01-25T08:12:15;31.58;;;6.85;;
41446;SDS011;27185;52.040;4.490;2024-01-25T08:15:01;38.90;;;7.57;;
41446;SDS011;27185;52.040;4.490;2024-01-25T08:17:47;26.88;;;6.78;;
41446;SDS011;27185;52.040;4.490;2024-01-25T08:20:32;31.95;;;7.47;;
41446;SDS011;27185;52.040;4.490;2024-01-25T08:23:18;36.33;;;7.28;;
41446;SDS011;27185;52.040;4.490;2024-01-25T08:26:03;35.03;;;8.15;;
41446;SDS011;27185;52.040;4.490;2024-01-25T08:28:49;32.88;;;7.38;;
41446;SDS011;27185;52.040;4.490;2024-01-25T08:31:35;28.42;;;6.60;;
41446;SDS011;27185;52.040;4.490;2024-01-25T08:34:20;26.13;;;6.13;;
41446;SDS011;27185;52.040;4.490;2024-01-25T08:37:06;23.77;;;6.13;;
41446;SDS011;27185;52.040;4.490;2024-01-25T08:39:52;25.45;;;6.35;;
41446;SDS011;27185;52.040;4.490;2024-01-25T08:42:38;31.48;;;6.38;;
41446;SDS011;27185;52.040;4.490;2024-01-25T08:45:23;27.17;;;6.88;;
41446;SDS011;27185;52.040;4.490;2024-01-25T08:48:09;24.70;;;5.80;;
41446;SDS011;27185;52.040;4.490;2024-01-25T08:50:54;33.78;;;8.13;;
41446;SDS011;27185;52.040;4.490;2024-01-25T08:53:40;28.67;;;7.30;;
41446;SDS011;27185;52.040;4.490;2024-01-25T08:56:25;31.40;;;7.45;;
41446;SDS011;27185;52.040;4.490;2024-01-25T08:59:11;31.05;;;6.78;;
41446;SDS011;27185;52.040;4.490;2024-01-25T09:01:57;31.95;;;7.53;;
41446;SDS011;27185;52.040;4.490;2024-01-25T09:04:43;34.13;;;7.07;;
41446;SDS011;27185;52.040;4.490;2024-01-25T09:07:29;25.65;;;7.15;;
41446;SDS011;27185;52.040;4.490;2024-01-25T09:10:14;33.08;;;7.63;;
41446;SDS011;27185;52.040;4.490;2024-01-25T09:13:00;23.02;;;6.28;;
41446;SDS011;27185;52.040;4.490;2024-01-25T09:15:45;44.80;;;7.90;;
41446;SDS011;27185;52.040;4.490;2024-01-25T09:18:31;31.70;;;7.85;;
41446;SDS011;27185;52.040;4.490;2024-01-25T09:21:17;32.38;;;7.63;;
41446;SDS011;27185;52.040;4.490;2024-01-25T09:24:03;30.27;;;7.28;;
41446;SDS011;27185;52.040;4.490;2024-01-25T09:26:48;27.55;;;7.85;;
41446;SDS011;27185;52.040;4.490;2024-01-25T09:29:34;33.92;;;9.02;;
41446;SDS011;27185;52.040;4.490;2024-01-25T09:32:19;33.65;;;8.65;;
41446;SDS011;27185;52.040;4.490;2024-01-25T09:35:05;43.05;;;8.65;;
41446;SDS011;27185;52.040;4.490;2024-01-25T09:37:51;39.88;;;8.07;;
41446;SDS011;27185;52.040;4.490;2024-01-25T09:40:37;27.85;;;8.18;;
41446;SDS011;27185;52.040;4.490;2024-01-25T09:43:23;34.40;;;8.10;;
41446;SDS011;27185;52.040;4.490;2024-01-25T09:46:08;43.35;;;10.65;;
41446;SDS011;27185;52.040;4.490;2024-01-25T09:48:58;40.92;;;8.90;;
41446;SDS011;27185;52.040;4.490;2024-01-25T09:51:44;35.45;;;7.60;;
41446;SDS011;27185;52.040;4.490;2024-01-25T09:54:33;40.90;;;8.18;;
41446;SDS011;27185;52.040;4.490;2024-01-25T09:57:24;28.58;;;7.35;;
41446;SDS011;27185;52.040;4.490;2024-01-25T10:00:13;37.30;;;6.18;;
41446;SDS011;27185;52.040;4.490;2024-01-25T10:02:59;28.67;;;7.32;;
41446;SDS011;27185;52.040;4.490;2024-01-25T10:05:44;32.55;;;6.38;;
41446;SDS011;27185;52.040;4.490;2024-01-25T10:08:30;26.50;;;6.22;;
41446;SDS011;27185;52.040;4.490;2024-01-25T10:11:16;26.75;;;5.75;;
41446;SDS011;27185;52.040;4.490;2024-01-25T10:14:01;27.08;;;7.40;;
41446;SDS011;27185;52.040;4.490;2024-01-25T10:16:48;32.28;;;6.88;;
41446;SDS011;27185;52.040;4.490;2024-01-25T10:19:33;32.30;;;6.78;;
41446;SDS011;27185;52.040;4.490;2024-01-25T10:22:19;27.75;;;6.20;;
41446;SDS011;27185;52.040;4.490;2024-01-25T10:25:08;34.38;;;6.97;;
41446;SDS011;27185;52.040;4.490;2024-01-25T10:27:58;37.10;;;7.45;;
41446;SDS011;27185;52.040;4.490;2024-01-25T10:30:43;30.10;;;6.13;;
41446;SDS011;27185;52.040;4.490;2024-01-25T10:33:29;25.23;;;6.22;;
41446;SDS011;27185;52.040;4.490;2024-01-25T10:36:15;34.30;;;7.45;;
41446;SDS011;27185;52.040;4.490;2024-01-25T10:39:02;29.42;;;7.03;;
41446;SDS011;27185;52.040;4.490;2024-01-25T10:41:50;27.83;;;6.85;;
41446;SDS011;27185;52.040;4.490;2024-01-25T10:44:35;30.08;;;6.40;;
41446;SDS011;27185;52.040;4.490;2024-01-25T10:47:21;35.47;;;7.18;;
41446;SDS011;27185;52.040;4.490;2024-01-25T10:50:08;33.92;;;6.70;;
41446;SDS011;27185;52.040;4.490;2024-01-25T10:52:54;27.42;;;5.53;;
41446;SDS011;27185;52.040;4.490;2024-01-25T10:55:40;31.95;;;6.88;;
41446;SDS011;27185;52.040;4.490;2024-01-25T10:58:33;36.83;;;7.03;;
41446;SDS011;27185;52.040;4.490;2024-01-25T11:01:20;33.63;;;7.63;;
41446;SDS011;27185;52.040;4.490;2024-01-25T11:04:15;28.80;;;6.45;;
41446;SDS011;27185;52.040;4.490;2024-01-25T11:07:08;31.60;;;7.22;;
41446;SDS011;27185;52.040;4.490;2024-01-25T11:09:54;23.00;;;6.25;;
41446;SDS011;27185;52.040;4.490;2024-01-25T11:12:50;29.10;;;7.78;;
41446;SDS011;27185;52.040;4.490;2024-01-25T11:15:43;31.58;;;7.20;;
41446;SDS011;27185;52.040;4.490;2024-01-25T11:18:29;27.48;;;7.25;;
41446;SDS011;27185;52.040;4.490;2024-01-25T11:21:21;32.17;;;7.90;;
41446;SDS011;27185;52.040;4.490;2024-01-25T11:24:11;35.35;;;7.43;;
41446;SDS011;27185;52.040;4.490;2024-01-25T11:27:01;29.30;;;6.97;;
41446;SDS011;27185;52.040;4.490;2024-01-25T11:29:47;36.50;;;7.90;;
41446;SDS011;27185;52.040;4.490;2024-01-25T11:32:33;35.78;;;9.02;;
41446;SDS011;27185;52.040;4.490;2024-01-25T11:35:18;31.10;;;7.90;;
41446;SDS011;27185;52.040;4.490;2024-01-25T11:38:05;40.78;;;9.02;;
41446;SDS011;27185;52.040;4.490;2024-01-25T11:40:51;40.10;;;8.90;;
41446;SDS011;27185;52.040;4.490;2024-01-25T11:43:36;29.02;;;8.38;;
41446;SDS011;27185;52.040;4.490;2024-01-25T11:46:22;37.10;;;8.10;;
41446;SDS011;27185;52.040;4.490;2024-01-25T11:49:07;30.35;;;8.25;;
41446;SDS011;27185;52.040;4.490;2024-01-25T11:51:53;29.05;;;8.02;;
41446;SDS011;27185;52.040;4.490;2024-01-25T11:54:39;35.08;;;7.50;;
41446;SDS011;27185;52.040;4.490;2024-01-25T11:57:25;36.90;;;8.57;;
41446;SDS011;27185;52.040;4.490;2024-01-25T12:00:14;34.38;;;9.60;;
41446;SDS011;27185;52.040;4.490;2024-01-25T12:03:01;31.10;;;8.27;;
41446;SDS011;27185;52.040;4.490;2024-01-25T12:05:47;29.77;;;8.20;;
41446;SDS011;27185;52.040;4.490;2024-01-25T12:08:32;39.83;;;9.55;;
41446;SDS011;27185;52.040;4.490;2024-01-25T12:11:18;40.50;;;9.07;;
41446;SDS011;27185;52.040;4.490;2024-01-25T12:16:55;38.65;;;8.95;;
41446;SDS011;27185;52.040;4.490;2024-01-25T12:19:40;28.95;;;7.95;;
41446;SDS011;27185;52.040;4.490;2024-01-25T12:22:29;42.35;;;8.75;;
41446;SDS011;27185;52.040;4.490;2024-01-25T12:25:15;26.73;;;8.75;;
41446;SDS011;27185;52.040;4.490;2024-01-25T12:28:01;37.95;;;8.95;;
41446;SDS011;27185;52.040;4.490;2024-01-25T12:30:46;35.47;;;7.18;;
41446;SDS011;27185;52.040;4.490;2024-01-25T12:33:32;39.78;;;8.27;;
41446;SDS011;27185;52.040;4.490;2024-01-25T12:36:18;35.45;;;8.80;;
41446;SDS011;27185;52.040;4.490;2024-01-25T12:39:04;34.30;;;8.82;;
41446;SDS011;27185;52.040;4.490;2024-01-25T12:41:49;38.50;;;7.60;;
41446;SDS011;27185;52.040;4.490;2024-01-25T12:44:35;33.53;;;7.47;;
41446;SDS011;27185;52.040;4.490;2024-01-25T12:47:21;32.78;;;7.45;;
41446;SDS011;27185;52.040;4.490;2024-01-25T12:50:06;35.55;;;6.90;;
41446;SDS011;27185;52.040;4.490;2024-01-25T12:52:52;43.95;;;7.93;;
41446;SDS011;27185;52.040;4.490;2024-01-25T12:55:38;36.90;;;7.95;;
41446;SDS011;27185;52.040;4.490;2024-01-25T12:58:24;46.60;;;8.77;;
41446;SDS011;27185;52.040;4.490;2024-01-25T13:01:09;40.00;;;7.95;;
41446;SDS011;27185;52.040;4.490;2024-01-25T13:03:55;33.70;;;7.32;;
41446;SDS011;27185;52.040;4.490;2024-01-25T13:06:41;38.75;;;8.52;;
41446;SDS011;27185;52.040;4.490;2024-01-25T13:09:27;40.75;;;7.80;;
41446;SDS011;27185;52.040;4.490;2024-01-25T13:12:14;31.08;;;6.85;;
41446;SDS011;27185;52.040;4.490;2024-01-25T13:14:59;31.70;;;6.88;;
41446;SDS011;27185;52.040;4.490;2024-01-25T13:17:45;41.95;;;8.10;;
41446;SDS011;27185;52.040;4.490;2024-01-25T13:20:31;35.30;;;7.82;;
41446;SDS011;27185;52.040;4.490;2024-01-25T13:23:16;30.48;;;6.90;;
41446;SDS011;27185;52.040;4.490;2024-01-25T13:26:02;29.73;;;6.78;;
41446;SDS011;27185;52.040;4.490;2024-01-25T13:28:47;43.78;;;8.02;;
41446;SDS011;27185;52.040;4.490;2024-01-25T13:31:33;34.78;;;6.90;;
41446;SDS011;27185;52.040;4.490;2024-01-25T13:34:19;24.65;;;7.00;;
41446;SDS011;27185;52.040;4.490;2024-01-25T13:37:04;33.30;;;8.52;;
41446;SDS011;27185;52.040;4.490;2024-01-25T13:39:50;33.10;;;7.93;;
41446;SDS011;27185;52.040;4.490;2024-01-25T13:42:35;27.27;;;7.78;;
41446;SDS011;27185;52.040;4.490;2024-01-25T13:45:21;33.00;;;7.50;;
41446;SDS011;27185;52.040;4.490;2024-01-25T13:48:06;25.30;;;7.35;;
41446;SDS011;27185;52.040;4.490;2024-01-25T13:50:52;27.20;;;7.00;;
41446;SDS011;27185;52.040;4.490;2024-01-25T13:53:37;25.13;;;5.78;;
41446;SDS011;27185;52.040;4.490;2024-01-25T13:56:23;29.65;;;6.10;;
41446;SDS011;27185;52.040;4.490;2024-01-25T13:59:09;32.65;;;8.68;;
41446;SDS011;27185;52.040;4.490;2024-01-25T14:01:54;27.88;;;7.70;;
41446;SDS011;27185;52.040;4.490;2024-01-25T14:04:40;31.55;;;8.32;;
41446;SDS011;27185;52.040;4.490;2024-01-25T14:07:26;31.70;;;8.30;;
41446;SDS011;27185;52.040;4.490;2024-01-25T14:10:12;38.15;;;7.93;;
41446;SDS011;27185;52.040;4.490;2024-01-25T14:12:58;37.17;;;10.07;;
41446;SDS011;27185;52.040;4.490;2024-01-25T14:15:43;32.85;;;11.05;;
41446;SDS011;27185;52.040;4.490;2024-01-25T14:18:35;35.15;;;13.20;;
41446;SDS011;27185;52.040;4.490;2024-01-25T14:21:22;42.83;;;14.32;;
41446;SDS011;27185;52.040;4.490;2024-01-25T14:24:08;34.00;;;14.07;;
41446;SDS011;27185;52.040;4.490;2024-01-25T14:26:53;48.20;;;15.32;;
41446;SDS011;27185;52.040;4.490;2024-01-25T14:29:39;39.45;;;15.27;;
41446;SDS011;27185;52.040;4.490;2024-01-25T14:32:24;45.63;;;19.50;;
41446;SDS011;27185;52.040;4.490;2024-01-25T14:35:10;39.60;;;18.27;;
41446;SDS011;27185;52.040;4.490;2024-01-25T14:37:56;59.97;;;24.45;;
41446;SDS011;27185;52.040;4.490;2024-01-25T14:40:41;57.00;;;25.75;;
41446;SDS011;27185;52.040;4.490;2024-01-25T14:43:27;70.68;;;29.48;;
41446;SDS011;27185;52.040;4.490;2024-01-25T14:46:12;66.07;;;30.52;;
41446;SDS011;27185;52.040;4.490;2024-01-25T14:48:58;66.28;;;30.80;;
41446;SDS011;27185;52.040;4.490;2024-01-25T14:51:44;68.85;;;30.38;;
41446;SDS011;27185;52.040;4.490;2024-01-25T14:54:30;67.57;;;30.33;;
41446;SDS011;27185;52.040;4.490;2024-01-25T14:57:15;69.72;;;30.15;;
41446;SDS011;27185;52.040;4.490;2024-01-25T15:00:01;64.97;;;29.13;;
41446;SDS011;27185;52.040;4.490;2024-01-25T15:02:47;64.47;;;29.80;;
41446;SDS011;27185;52.040;4.490;2024-01-25T15:05:32;68.72;;;31.33;;
41446;SDS011;27185;52.040;4.490;2024-01-25T15:08:18;54.72;;;25.33;;
41446;SDS011;27185;52.040;4.490;2024-01-25T15:11:04;58.78;;;29.98;;
41446;SDS011;27185;52.040;4.490;2024-01-25T15:13:50;57.65;;;28.60;;
41446;SDS011;27185;52.040;4.490;2024-01-25T15:16:37;49.28;;;24.58;;
41446;SDS011;27185;52.040;4.490;2024-01-25T15:19:23;63.92;;;28.70;;
41446;SDS011;27185;52.040;4.490;2024-01-25T15:22:08;56.67;;;28.00;;
41446;SDS011;27185;52.040;4.490;2024-01-25T15:24:54;52.13;;;25.77;;
41446;SDS011;27185;52.040;4.490;2024-01-25T15:27:39;51.55;;;25.83;;
41446;SDS011;27185;52.040;4.490;2024-01-25T15:30:25;53.20;;;25.70;;
41446;SDS011;27185;52.040;4.490;2024-01-25T15:33:10;62.97;;;29.35;;
41446;SDS011;27185;52.040;4.490;2024-01-25T15:35:56;55.78;;;27.20;;
41446;SDS011;27185;52.040;4.490;2024-01-25T15:38:41;55.63;;;26.55;;
41446;SDS011;27185;52.040;4.490;2024-01-25T15:41:27;47.83;;;24.13;;
41446;SDS011;27185;52.040;4.490;2024-01-25T15:44:15;51.60;;;24.05;;
41446;SDS011;27185;52.040;4.490;2024-01-25T15:47:00;55.15;;;25.13;;
41446;SDS011;27185;52.040;4.490;2024-01-25T15:49:46;45.90;;;23.40;;
41446;SDS011;27185;52.040;4.490;2024-01-25T15:52:32;46.80;;;23.02;;
41446;SDS011;27185;52.040;4.490;2024-01-25T15:55:18;53.80;;;25.23;;
41446;SDS011;27185;52.040;4.490;2024-01-25T15:58:04;45.30;;;22.40;;
41446;SDS011;27185;52.040;4.490;2024-01-25T16:00:49;44.45;;;21.50;;
41446;SDS011;27185;52.040;4.490;2024-01-25T16:03:35;41.00;;;22.27;;
41446;SDS011;27185;52.040;4.490;2024-01-25T16:06:21;50.22;;;23.65;;
41446;SDS011;27185;52.040;4.490;2024-01-25T16:09:06;40.67;;;21.88;;
41446;SDS011;27185;52.040;4.490;2024-01-25T16:11:52;37.58;;;20.20;;
41446;SDS011;27185;52.040;4.490;2024-01-25T16:14:38;41.22;;;22.23;;
41446;SDS011;27185;52.040;4.490;2024-01-25T16:17:23;46.00;;;22.70;;
41446;SDS011;27185;52.040;4.490;2024-01-25T16:20:09;44.20;;;21.67;;
41446;SDS011;27185;52.040;4.490;2024-01-25T16:22:55;39.30;;;21.98;;
41446;SDS011;27185;52.040;4.490;2024-01-25T16:25:41;44.13;;;20.33;;